sensor_id;sensor_type;location;lat;lon;timestamp;pressure;altitude;pressure_sealevel;temperature;humidity
45937;BME280;31649;46.510;6.498;2023-04-07T06:00:58;95370.06;;;2.92;53.23
45937;BME280;31649;46.510;6.498;2023-04-07T06:03:24;95377.00;;;3.03;53.23
45937;BME280;31649;46.510;6.498;2023-04-07T06:05:50;95381.81;;;3.07;52.71
45937;BME280;31649;46.510;6.498;2023-04-07T06:08:16;95366.41;;;3.07;52.86
45937;BME280;31649;46.510;6.498;2023-04-07T06:10:42;95374.34;;;3.16;52.92
45937;BME280;31649;46.510;6.498;2023-04-07T06:13:08;95373.78;;;3.23;52.65
45937;BME280;31649;46.510;6.498;2023-04-07T06:15:34;95372.75;;;3.26;52.71
45937;BME280;31649;46.510;6.498;2023-04-07T06:17:59;95374.38;;;3.27;52.78
45937;BME280;31649;46.510;6.498;2023-04-07T06:20:25;95374.94;;;3.19;52.82
45937;BME280;31649;46.510;6.498;2023-04-07T06:22:52;95374.13;;;3.19;52.85
45937;BME280;31649;46.510;6.498;2023-04-07T06:25:19;95368.63;;;3.23;52.38
45937;BME280;31649;46.510;6.498;2023-04-07T06:27:50;95371.47;;;3.32;52.41
45937;BME280;31649;46.510;6.498;2023-04-07T06:30:18;95371.47;;;3.32;52.40
45937;BME280;31649;46.510;6.498;2023-04-07T06:32:43;95368.53;;;3.48;52.09
45937;BME280;31649;46.510;6.498;2023-04-07T06:35:09;95378.47;;;3.64;51.87
45937;BME280;31649;46.510;6.498;2023-04-07T06:37:36;95369.94;;;3.75;51.82
45937;BME280;31649;46.510;6.498;2023-04-07T06:40:01;95367.94;;;3.79;52.25
45937;BME280;31649;46.510;6.498;2023-04-07T06:42:27;95375.56;;;3.80;51.64
45937;BME280;31649;46.510;6.498;2023-04-07T06:44:53;95368.19;;;3.87;51.77
45937;BME280;31649;46.510;6.498;2023-04-07T06:47:19;95369.94;;;3.98;51.73
45937;BME280;31649;46.510;6.498;2023-04-07T06:49:45;95375.09;;;3.98;51.41
45937;BME280;31649;46.510;6.498;2023-04-07T06:52:11;95372.94;;;4.15;50.78
45937;BME280;31649;46.510;6.498;2023-04-07T06:54:37;95366.84;;;4.27;51.32
45937;BME280;31649;46.510;6.498;2023-04-07T06:57:03;95367.66;;;4.28;50.81
45937;BME280;31649;46.510;6.498;2023-04-07T06:59:28;95367.44;;;4.20;50.97
45937;BME280;31649;46.510;6.498;2023-04-07T07:01:54;95367.19;;;4.23;51.44
45937;BME280;31649;46.510;6.498;2023-04-07T07:04:19;95374.81;;;4.24;51.61
45937;BME280;31649;46.510;6.498;2023-04-07T07:06:45;95366.97;;;4.26;51.67
45937;BME280;31649;46.510;6.498;2023-04-07T07:09:12;95377.97;;;4.28;51.77
45937;BME280;31649;46.510;6.498;2023-04-07T07:11:39;95373.16;;;4.35;51.80
45937;BME280;31649;46.510;6.498;2023-04-07T07:14:06;95370.31;;;4.38;52.13
45937;BME280;31649;46.510;6.498;2023-04-07T07:16:32;95376.66;;;4.34;52.06
45937;BME280;31649;46.510;6.498;2023-04-07T07:18:58;95373.84;;;4.37;52.22
45937;BME280;31649;46.510;6.498;2023-04-07T07:21:24;95373.72;;;4.38;51.98
45937;BME280;31649;46.510;6.498;2023-04-07T07:23:52;95372.53;;;4.43;52.23
45937;BME280;31649;46.510;6.498;2023-04-07T07:26:20;95372.69;;;4.41;51.83
45937;BME280;31649;46.510;6.498;2023-04-07T07:28:46;95370.78;;;4.43;52.12
45937;BME280;31649;46.510;6.498;2023-04-07T07:31:12;95377.44;;;4.46;51.86
45937;BME280;31649;46.510;6.498;2023-04-07T07:33:41;95377.22;;;4.49;51.83
45937;BME280;31649;46.510;6.498;2023-04-07T07:36:10;95380.00;;;4.57;52.01
45937;BME280;31649;46.510;6.498;2023-04-07T07:38:37;95383.50;;;4.56;51.92
45937;BME280;31649;46.510;6.498;2023-04-07T07:41:03;95384.59;;;4.53;51.75
45937;BME280;31649;46.510;6.498;2023-04-07T07:43:29;95380.41;;;4.41;50.43
45937;BME280;31649;46.510;6.498;2023-04-07T07:45:55;95382.72;;;4.44;50.96
45937;BME280;31649;46.510;6.498;2023-04-07T07:48:21;95383.19;;;4.49;50.95
45937;BME280;31649;46.510;6.498;2023-04-07T07:50:46;95379.78;;;4.49;50.42
45937;BME280;31649;46.510;6.498;2023-04-07T07:53:14;95381.91;;;4.44;50.49
45937;BME280;31649;46.510;6.498;2023-04-07T07:55:41;95371.28;;;4.37;50.15
45937;BME280;31649;46.510;6.498;2023-04-07T07:58:07;95375.97;;;4.32;50.39
45937;BME280;31649;46.510;6.498;2023-04-07T08:00:32;95376.75;;;4.44;50.11
45937;BME280;31649;46.510;6.498;2023-04-07T08:02:58;95379.91;;;4.47;49.29
45937;BME280;31649;46.510;6.498;2023-04-07T08:05:25;95386.25;;;4.43;49.80
45937;BME280;31649;46.510;6.498;2023-04-07T08:07:51;95386.81;;;4.47;49.47
45937;BME280;31649;46.510;6.498;2023-04-07T08:10:17;95386.47;;;4.51;49.31
45937;BME280;31649;46.510;6.498;2023-04-07T08:12:44;95388.34;;;4.49;49.19
45937;BME280;31649;46.510;6.498;2023-04-07T08:15:10;95388.00;;;4.43;49.14
45937;BME280;31649;46.510;6.498;2023-04-07T08:17:37;95388.13;;;4.41;48.44
45937;BME280;31649;46.510;6.498;2023-04-07T08:20:03;95389.75;;;4.42;49.15
45937;BME280;31649;46.510;6.498;2023-04-07T08:22:30;95395.13;;;4.50;48.95
45937;BME280;31649;46.510;6.498;2023-04-07T08:24:55;95388.44;;;4.48;48.96
45937;BME280;31649;46.510;6.498;2023-04-07T08:27:21;95392.53;;;4.50;48.70
45937;BME280;31649;46.510;6.498;2023-04-07T08:30:06;95401.78;;;4.53;49.09
45937;BME280;31649;46.510;6.498;2023-04-07T08:32:39;95398.84;;;4.58;47.89
45937;BME280;31649;46.510;6.498;2023-04-07T08:35:05;95401.66;;;4.55;47.81
45937;BME280;31649;46.510;6.498;2023-04-07T08:37:32;95395.88;;;4.62;48.30
45937;BME280;31649;46.510;6.498;2023-04-07T08:39:58;95396.00;;;4.72;47.71
45937;BME280;31649;46.510;6.498;2023-04-07T08:42:32;95402.63;;;4.86;47.68
45937;BME280;31649;46.510;6.498;2023-04-07T08:45:05;95389.44;;;5.01;47.88
45937;BME280;31649;46.510;6.498;2023-04-07T08:47:32;95391.31;;;4.99;47.31
45937;BME280;31649;46.510;6.498;2023-04-07T08:50:06;95395.31;;;4.92;46.68
45937;BME280;31649;46.510;6.498;2023-04-07T08:52:34;95408.16;;;5.03;46.25
45937;BME280;31649;46.510;6.498;2023-04-07T08:55:02;95388.56;;;5.12;46.96
45937;BME280;31649;46.510;6.498;2023-04-07T08:57:32;95384.38;;;5.21;45.92
45937;BME280;31649;46.510;6.498;2023-04-07T08:59:58;95386.44;;;5.49;45.86
45937;BME280;31649;46.510;6.498;2023-04-07T09:02:31;95378.69;;;5.70;44.92
45937;BME280;31649;46.510;6.498;2023-04-07T09:04:57;95388.91;;;5.81;44.33
45937;BME280;31649;46.510;6.498;2023-04-07T09:07:24;95384.84;;;6.10;45.09
45937;BME280;31649;46.510;6.498;2023-04-07T09:09:51;95382.31;;;5.99;44.72
45937;BME280;31649;46.510;6.498;2023-04-07T09:12:16;95370.97;;;5.80;45.38
45937;BME280;31649;46.510;6.498;2023-04-07T09:14:42;95374.03;;;5.64;45.96
45937;BME280;31649;46.510;6.498;2023-04-07T09:17:08;95380.66;;;5.56;46.39
45937;BME280;31649;46.510;6.498;2023-04-07T09:19:33;95379.84;;;5.56;46.63
45937;BME280;31649;46.510;6.498;2023-04-07T09:21:59;95375.88;;;5.52;46.53
45937;BME280;31649;46.510;6.498;2023-04-07T09:24:27;95383.63;;;5.52;46.78
45937;BME280;31649;46.510;6.498;2023-04-07T09:27:13;95381.28;;;5.49;47.07
45937;BME280;31649;46.510;6.498;2023-04-07T09:29:41;95380.34;;;5.50;47.09
45937;BME280;31649;46.510;6.498;2023-04-07T09:32:08;95375.31;;;5.48;47.23
45937;BME280;31649;46.510;6.498;2023-04-07T09:34:36;95376.28;;;5.47;47.30
45937;BME280;31649;46.510;6.498;2023-04-07T09:37:03;95375.31;;;5.48;47.43
45937;BME280;31649;46.510;6.498;2023-04-07T09:39:29;95364.19;;;5.48;47.67
45937;BME280;31649;46.510;6.498;2023-04-07T09:41:55;95369.59;;;5.44;47.84
45937;BME280;31649;46.510;6.498;2023-04-07T09:44:21;95363.59;;;5.44;48.03
45937;BME280;31649;46.510;6.498;2023-04-07T09:46:49;95371.47;;;5.42;47.87
45937;BME280;31649;46.510;6.498;2023-04-07T09:49:15;95370.66;;;5.42;48.04
45937;BME280;31649;46.510;6.498;2023-04-07T09:51:57;95370.78;;;5.40;48.06
45937;BME280;31649;46.510;6.498;2023-04-07T09:54:34;95363.06;;;5.40;47.93
45937;BME280;31649;46.510;6.498;2023-04-07T09:57:02;95372.44;;;5.41;47.92
45937;BME280;31649;46.510;6.498;2023-04-07T09:59:29;95366.13;;;5.55;47.92
45937;BME280;31649;46.510;6.498;2023-04-07T10:01:55;95370.72;;;5.52;47.51
45937;BME280;31649;46.510;6.498;2023-04-07T10:04:22;95369.59;;;5.76;47.20
45937;BME280;31649;46.510;6.498;2023-04-07T10:06:48;95361.50;;;5.90;46.46
45937;BME280;31649;46.510;6.498;2023-04-07T10:09:15;95357.84;;;5.93;46.50
45937;BME280;31649;46.510;6.498;2023-04-07T10:11:43;95355.66;;;5.88;46.84
45937;BME280;31649;46.510;6.498;2023-04-07T10:14:10;95357.66;;;5.75;47.08
45937;BME280;31649;46.510;6.498;2023-04-07T10:16:37;95353.78;;;6.00;46.92
45937;BME280;31649;46.510;6.498;2023-04-07T10:19:03;95365.19;;;5.98;46.51
45937;BME280;31649;46.510;6.498;2023-04-07T10:21:33;95358.25;;;5.98;46.54
45937;BME280;31649;46.510;6.498;2023-04-07T10:26:47;95354.13;;;5.86;46.93
45937;BME280;31649;46.510;6.498;2023-04-07T10:29:16;95356.16;;;6.13;46.99
45937;BME280;31649;46.510;6.498;2023-04-07T10:31:44;95357.66;;;6.06;46.88
45937;BME280;31649;46.510;6.498;2023-04-07T10:34:10;95348.34;;;6.03;46.91
45937;BME280;31649;46.510;6.498;2023-04-07T10:37:09;95350.31;;;6.11;46.69
45937;BME280;31649;46.510;6.498;2023-04-07T10:39:35;95343.94;;;6.15;46.73
45937;BME280;31649;46.510;6.498;2023-04-07T10:42:02;95350.66;;;5.97;47.07
45937;BME280;31649;46.510;6.498;2023-04-07T10:47:06;95341.53;;;5.92;47.18
45937;BME280;31649;46.510;6.498;2023-04-07T10:49:32;95342.06;;;5.86;47.77
45937;BME280;31649;46.510;6.498;2023-04-07T10:54:37;95339.31;;;5.78;48.04
45937;BME280;31649;46.510;6.498;2023-04-07T10:57:07;95342.06;;;5.86;48.08
45937;BME280;31649;46.510;6.498;2023-04-07T10:59:35;95340.75;;;6.02;48.10
